createdAt,value
2022-11-02T00:04:57.330Z,100
2022-11-02T00:09:55.465Z,100
2022-11-02T00:14:53.516Z,100
2022-11-02T00:19:51.707Z,100
2022-11-02T00:24:50.080Z,100
2022-11-02T00:29:48.458Z,100
2022-11-02T00:34:46.626Z,100
2022-11-02T00:39:45.018Z,100
2022-11-02T00:44:43.060Z,100
2022-11-02T00:49:41.088Z,100
2022-11-02T00:54:39.047Z,100
2022-11-02T00:59:37.265Z,100
2022-11-02T01:04:35.168Z,100
2022-11-02T01:09:33.263Z,100
2022-11-02T01:14:31.436Z,100
2022-11-02T01:19:30.249Z,100
2022-11-02T01:24:28.486Z,100
2022-11-02T01:29:26.550Z,100
2022-11-02T01:34:24.712Z,100
2022-11-02T01:39:22.761Z,100
2022-11-02T01:44:20.965Z,100
2022-11-02T01:49:19.100Z,100
2022-11-02T01:54:17.262Z,100
2022-11-02T01:59:15.397Z,100
2022-11-02T02:04:13.358Z,100
2022-11-02T02:09:11.470Z,100
2022-11-02T02:14:09.185Z,100
2022-11-02T02:19:07.512Z,100
2022-11-02T02:24:05.569Z,100
2022-11-02T02:29:03.785Z,100
2022-11-02T02:34:01.997Z,100
2022-11-02T02:39:00.070Z,100
2022-11-02T02:43:58.298Z,100
2022-11-02T02:48:56.446Z,100
2022-11-02T02:53:54.524Z,100
2022-11-02T02:58:52.997Z,100
2022-11-02T03:03:50.932Z,100
2022-11-02T03:08:49.023Z,100
2022-11-02T03:13:47.107Z,100
2022-11-02T03:18:45.291Z,100
2022-11-02T03:23:43.555Z,100
2022-11-02T03:28:41.550Z,100
2022-11-02T03:33:39.674Z,100
2022-11-02T03:38:37.851Z,100
2022-11-02T03:43:35.911Z,100
2022-11-02T03:48:33.850Z,100
2022-11-02T03:53:31.969Z,100
2022-11-02T03:58:30.136Z,100
2022-11-02T04:03:28.240Z,100
2022-11-02T04:08:26.501Z,100
2022-11-02T04:13:24.760Z,100
2022-11-02T04:18:22.961Z,100
2022-11-02T04:23:21.056Z,100
2022-11-02T04:28:19.228Z,100
2022-11-02T04:33:18.110Z,100
2022-11-02T04:38:16.185Z,100
2022-11-02T04:43:14.437Z,100
2022-11-02T04:48:13.049Z,100
2022-11-02T04:53:11.437Z,100
2022-11-02T04:58:09.819Z,100
2022-11-02T05:03:09.713Z,100
2022-11-02T05:08:06.737Z,100
2022-11-02T05:13:04.573Z,100
2022-11-02T05:18:03.480Z,100
2022-11-02T05:23:01.828Z,100
2022-11-02T05:28:00.138Z,100
2022-11-02T05:32:58.355Z,100
2022-11-02T05:37:56.872Z,100
2022-11-02T05:42:55.445Z,100
2022-11-02T05:47:53.902Z,100
2022-11-02T05:52:52.159Z,98.5
2022-11-02T05:57:51.225Z,99
2022-11-02T06:02:52.835Z,85.3
2022-11-02T06:07:54.577Z,76.7
2022-11-02T06:12:55.273Z,71.8
2022-11-02T06:17:55.475Z,67.1
2022-11-02T06:22:55.128Z,62.2
2022-11-02T06:27:55.053Z,60.1
2022-11-02T06:32:54.632Z,55.7
2022-11-02T06:37:54.117Z,53.3
2022-11-02T06:43:03.524Z,49
2022-11-02T06:47:52.240Z,47.7
2022-11-02T06:52:51.453Z,44.7
2022-11-02T06:57:50.315Z,42.6
2022-11-02T07:02:49.690Z,40.8
2022-11-02T07:07:48.590Z,39
2022-11-02T07:12:47.610Z,38.1
2022-11-02T07:17:46.326Z,36.5
2022-11-02T07:22:45.155Z,35.8
2022-11-02T07:27:43.946Z,35.3
2022-11-02T07:32:42.883Z,34.1
2022-11-02T07:37:41.667Z,33.6
2022-11-02T07:42:40.183Z,32.8
2022-11-02T07:47:38.643Z,32.5
2022-11-02T07:52:37.107Z,32.1
2022-11-02T07:57:35.788Z,30.8
2022-11-02T08:02:34.300Z,30.3
2022-11-02T08:07:32.449Z,30.4
2022-11-02T08:12:30.803Z,29.7
2022-11-02T08:17:28.984Z,29.4
2022-11-02T08:22:27.526Z,28.9
2022-11-02T08:27:25.745Z,29.1
2022-11-02T08:32:24.495Z,28.5
2022-11-02T08:37:22.920Z,28
2022-11-02T08:42:21.684Z,26.9
2022-11-02T08:47:19.951Z,26.7
2022-11-02T08:52:18.209Z,27.4
2022-11-02T08:57:16.508Z,26.2
2022-11-02T09:02:14.550Z,26.6
2022-11-02T09:07:13.138Z,25.1
2022-11-02T09:12:11.331Z,25.6
2022-11-02T09:17:09.274Z,26
2022-11-02T09:22:07.569Z,25.6
2022-11-02T09:27:05.652Z,25.3
2022-11-02T09:32:03.624Z,25.3
2022-11-02T09:37:02.052Z,24.8
2022-11-02T09:42:00.167Z,25
2022-11-02T09:47:28.263Z,24.5
2022-11-02T09:51:56.939Z,24.2
2022-11-02T09:56:55.095Z,23.9
2022-11-02T10:01:53.459Z,23.8
2022-11-02T10:06:52.045Z,23.5
2022-11-02T10:11:50.403Z,23.3
2022-11-02T10:16:48.396Z,22.8
2022-11-02T10:21:46.691Z,22.9
2022-11-02T10:26:44.682Z,23.1
2022-11-02T10:31:43.002Z,23.9
2022-11-02T10:36:41.360Z,23.3
2022-11-02T10:41:39.451Z,22.8
2022-11-02T10:46:37.285Z,22.8
2022-11-02T10:51:34.774Z,23.3
2022-11-02T10:56:32.130Z,24.1
2022-11-02T11:01:29.518Z,23.8
2022-11-02T11:06:26.509Z,24.7
2022-11-02T11:11:23.234Z,26.8
2022-11-02T11:16:21.708Z,27.4
2022-11-02T11:21:16.993Z,29.5
2022-11-02T11:26:13.955Z,29.3
2022-11-02T11:31:11.450Z,30.7
2022-11-02T11:36:09.405Z,28.5
2022-11-02T11:41:07.145Z,28.5
2022-11-02T11:46:06.958Z,31
2022-11-02T11:51:03.378Z,31.6
2022-11-02T11:56:01.674Z,30.2
2022-11-02T12:00:59.869Z,30.3
2022-11-02T12:05:58.597Z,31.2
2022-11-02T12:10:56.978Z,30.6
2022-11-02T12:15:55.297Z,29.9
2022-11-02T12:20:53.538Z,30.5
2022-11-02T12:25:51.370Z,32.4
2022-11-02T12:30:49.354Z,32.2
2022-11-02T12:35:47.553Z,30.8
2022-11-02T12:40:45.383Z,34.2
2022-11-02T12:45:43.086Z,35.4
2022-11-02T12:50:40.818Z,34.3
2022-11-02T12:55:38.968Z,35.1
2022-11-02T13:00:36.278Z,35
2022-11-02T13:05:33.986Z,36.5
2022-11-02T13:10:31.659Z,37.4
2022-11-02T13:15:29.042Z,42.8
2022-11-02T13:20:26.328Z,43
2022-11-02T13:25:23.706Z,40.1
2022-11-02T13:30:20.593Z,43
2022-11-02T13:35:17.906Z,39.3
2022-11-02T13:40:15.485Z,40.4
2022-11-02T13:45:15.530Z,40.1
2022-11-02T13:50:10.708Z,39.5
2022-11-02T13:55:10.169Z,40.5
2022-11-02T14:00:07.634Z,42.8
2022-11-02T14:05:05.605Z,45.7
2022-11-02T14:10:03.334Z,45.3
2022-11-02T14:15:01.462Z,45.6
2022-11-02T14:19:59.474Z,44.5
2022-11-02T14:24:57.565Z,47
2022-11-02T14:29:55.366Z,46.7
2022-11-02T14:34:53.192Z,49
2022-11-02T14:39:51.222Z,50.1
2022-11-02T14:44:49.207Z,51.8
2022-11-02T14:49:47.094Z,53.4
2022-11-02T14:54:45.035Z,55.5
2022-11-02T14:59:43.042Z,56.3
2022-11-02T15:04:41.012Z,57.5
2022-11-02T15:09:39.043Z,57.6
2022-11-02T15:14:37.204Z,58
2022-11-02T15:19:35.133Z,58.9
2022-11-02T15:24:33.087Z,59.6
2022-11-02T15:29:31.190Z,59
2022-11-02T15:34:29.550Z,59.3
2022-11-02T15:39:27.794Z,60.5
2022-11-02T15:44:25.889Z,60.1
2022-11-02T15:49:23.991Z,61.3
2022-11-02T15:54:22.083Z,61.6
2022-11-02T15:59:19.963Z,61.1
2022-11-02T16:04:17.945Z,63.1
2022-11-02T16:09:16.111Z,63.7
2022-11-02T16:14:14.064Z,62.8
2022-11-02T16:19:12.246Z,64.5
2022-11-02T16:24:10.284Z,66.1
2022-11-02T16:29:08.698Z,66
2022-11-02T16:34:06.942Z,67
2022-11-02T16:39:04.991Z,67.3
2022-11-02T16:44:02.935Z,68.6
2022-11-02T16:49:00.946Z,67.8
2022-11-02T16:53:59.075Z,70.1
2022-11-02T16:58:57.397Z,70.5
2022-11-02T17:03:55.304Z,70.9
2022-11-02T17:08:53.487Z,71.7
2022-11-02T17:13:51.345Z,72
2022-11-02T17:18:49.303Z,72.6
2022-11-02T17:23:47.402Z,72.9
2022-11-02T17:28:45.586Z,72.5
2022-11-02T17:33:44.116Z,73.5
2022-11-02T17:38:42.269Z,73.9
2022-11-02T17:43:40.207Z,74.5
2022-11-02T17:48:38.958Z,75.3
2022-11-02T17:53:36.934Z,75.2
2022-11-02T17:58:35.457Z,75.1
2022-11-02T18:03:33.811Z,75
2022-11-02T18:08:31.961Z,74.9
2022-11-02T18:13:30.077Z,75
2022-11-02T18:18:28.624Z,75.4
2022-11-02T18:23:26.869Z,76
2022-11-02T18:28:25.162Z,75.9
2022-11-02T18:33:23.175Z,75.9
2022-11-02T18:38:21.819Z,76.4
2022-11-02T18:43:19.788Z,76.4
2022-11-02T18:48:18.314Z,76.8
2022-11-02T18:53:16.543Z,77.1
2022-11-02T18:58:14.619Z,76.8
2022-11-02T19:03:13.204Z,76.7
2022-11-02T19:08:10.994Z,77.4
2022-11-02T19:13:08.906Z,78
2022-11-02T19:18:07.147Z,77.8
2022-11-02T19:23:05.131Z,78.7
2022-11-02T19:28:04.083Z,78.5
2022-11-02T19:33:01.773Z,78.5
2022-11-02T19:37:59.898Z,79.7
2022-11-02T19:42:57.892Z,80
2022-11-02T19:47:56.016Z,79.3
2022-11-02T19:52:54.290Z,78.3
2022-11-02T19:57:52.475Z,78
2022-11-02T20:02:50.776Z,77.8
2022-11-02T20:07:49.061Z,77.6
2022-11-02T20:12:47.271Z,78.7
2022-11-02T20:17:58.774Z,78.7
2022-11-02T20:22:46.581Z,79
2022-11-02T20:27:43.898Z,79.8
2022-11-02T20:32:42.026Z,80.2
2022-11-02T20:37:40.194Z,80.6
2022-11-02T20:42:38.489Z,80.5
2022-11-02T20:47:36.588Z,81.3
2022-11-02T20:52:34.794Z,81.3
2022-11-02T20:57:32.972Z,81.1
2022-11-02T21:02:30.960Z,81.4
2022-11-02T21:07:29.439Z,81.6
2022-11-02T21:12:27.575Z,81.2
2022-11-02T21:17:25.746Z,81.9
2022-11-02T21:22:24.417Z,82.2
2022-11-02T21:27:22.380Z,83
2022-11-02T21:32:20.916Z,83.4
2022-11-02T21:37:19.056Z,83.2
2022-11-02T21:42:17.264Z,83.5
2022-11-02T21:47:15.336Z,84
2022-11-02T21:52:13.525Z,83.9
2022-11-02T21:57:11.696Z,83.3
2022-11-02T22:02:10.093Z,83.7
2022-11-02T22:07:08.028Z,84
2022-11-02T22:12:06.177Z,83.1
2022-11-02T22:17:11.229Z,82.3
2022-11-02T22:22:02.550Z,82.6
2022-11-02T22:27:00.769Z,81.6
2022-11-02T22:31:59.060Z,80.6
2022-11-02T22:36:57.393Z,81.6
2022-11-02T22:41:55.528Z,80.9
2022-11-02T22:46:53.608Z,81.2
2022-11-02T22:51:51.588Z,82.5
2022-11-02T22:56:49.712Z,83
2022-11-02T23:01:47.753Z,82.4
2022-11-02T23:06:45.720Z,83.3
2022-11-02T23:11:43.955Z,82.7
2022-11-02T23:16:41.932Z,83
2022-11-02T23:21:40.093Z,83.6
2022-11-02T23:26:38.170Z,83.9
2022-11-02T23:31:36.047Z,83.9
2022-11-02T23:36:34.123Z,84.8
2022-11-02T23:41:32.196Z,85.5
2022-11-02T23:46:30.120Z,86.4
2022-11-02T23:51:28.209Z,86.9
2022-11-02T23:56:26.545Z,86.5
